CheckWX is a tool to help pilots better visualize weather data.  It is not intended as a substitute for an official pre-flight weather briefing.

20:49:05 UTC

DAUO TAF
Guemar Airport
Guemar, Algeria
TAF DAUO 211700Z 2118/2203 20010KT 9999 FEW030 SCT200

Nov-21@
18:00 UTC

Nov-21 @ 18:00 UTC

Nov-22@
03:00 UTC

Nov-22 @ 03:00 UTC

TAF DAUO 211700Z 2118/2203 20010KT 9999 FEW030 SCT200
Wind
  • 200° at 10 KTS
Cloud Levels
  • Few at 3,000' AGL
  • Scattered at 20,000' AGL